sensor_id;sensor_type;location;lat;lon;timestamp;temperature;humidity
3923;DHT22;1976;51.694;6.256;2022-07-29T00:02:13;19.80;87.10
3923;DHT22;1976;51.694;6.256;2022-07-29T00:04:39;19.80;87.40
3923;DHT22;1976;51.694;6.256;2022-07-29T00:07:04;19.80;87.80
3923;DHT22;1976;51.694;6.256;2022-07-29T00:09:31;19.80;87.90
3923;DHT22;1976;51.694;6.256;2022-07-29T00:11:59;19.80;87.80
3923;DHT22;1976;51.694;6.256;2022-07-29T00:14:26;19.80;87.90
3923;DHT22;1976;51.694;6.256;2022-07-29T00:16:52;19.80;88.00
3923;DHT22;1976;51.694;6.256;2022-07-29T00:19:17;19.80;87.90
3923;DHT22;1976;51.694;6.256;2022-07-29T00:21:43;19.80;88.00
3923;DHT22;1976;51.694;6.256;2022-07-29T00:24:09;19.80;88.10
3923;DHT22;1976;51.694;6.256;2022-07-29T00:26:34;19.80;87.90
3923;DHT22;1976;51.694;6.256;2022-07-29T00:29:01;19.80;87.90
3923;DHT22;1976;51.694;6.256;2022-07-29T00:31:27;19.80;87.90
3923;DHT22;1976;51.694;6.256;2022-07-29T00:33:54;19.80;87.70
3923;DHT22;1976;51.694;6.256;2022-07-29T00:36:20;19.70;87.90
3923;DHT22;1976;51.694;6.256;2022-07-29T00:38:49;19.70;87.90
3923;DHT22;1976;51.694;6.256;2022-07-29T00:41:16;19.70;88.40
3923;DHT22;1976;51.694;6.256;2022-07-29T00:46:09;19.60;89.20
3923;DHT22;1976;51.694;6.256;2022-07-29T00:48:34;19.60;89.50
3923;DHT22;1976;51.694;6.256;2022-07-29T00:51:03;19.60;89.90
3923;DHT22;1976;51.694;6.256;2022-07-29T00:53:30;19.60;89.90
3923;DHT22;1976;51.694;6.256;2022-07-29T00:55:57;19.60;89.90
3923;DHT22;1976;51.694;6.256;2022-07-29T00:58:24;19.60;90.00
3923;DHT22;1976;51.694;6.256;2022-07-29T01:00:51;19.50;90.00
3923;DHT22;1976;51.694;6.256;2022-07-29T01:03:18;19.50;90.10
3923;DHT22;1976;51.694;6.256;2022-07-29T01:05:44;19.50;90.10
3923;DHT22;1976;51.694;6.256;2022-07-29T01:08:12;19.50;90.20
3923;DHT22;1976;51.694;6.256;2022-07-29T01:10:39;19.40;90.20
3923;DHT22;1976;51.694;6.256;2022-07-29T01:13:06;19.50;90.20
3923;DHT22;1976;51.694;6.256;2022-07-29T01:15:37;19.50;90.30
3923;DHT22;1976;51.694;6.256;2022-07-29T01:18:44;19.70;90.50
3923;DHT22;1976;51.694;6.256;2022-07-29T01:23:59;19.80;90.30
3923;DHT22;1976;51.694;6.256;2022-07-29T01:40:23;19.80;90.20
3923;DHT22;1976;51.694;6.256;2022-07-29T01:42:55;19.80;90.10
3923;DHT22;1976;51.694;6.256;2022-07-29T01:48:02;19.70;90.00
3923;DHT22;1976;51.694;6.256;2022-07-29T01:50:44;19.70;90.00
3923;DHT22;1976;51.694;6.256;2022-07-29T01:53:12;19.60;90.10
3923;DHT22;1976;51.694;6.256;2022-07-29T01:55:43;19.50;90.10
3923;DHT22;1976;51.694;6.256;2022-07-29T01:58:11;19.50;90.30
3923;DHT22;1976;51.694;6.256;2022-07-29T02:00:38;19.50;90.30
3923;DHT22;1976;51.694;6.256;2022-07-29T02:03:09;19.50;90.40
3923;DHT22;1976;51.694;6.256;2022-07-29T02:05:36;19.40;90.80
3923;DHT22;1976;51.694;6.256;2022-07-29T02:08:04;19.40;91.40
3923;DHT22;1976;51.694;6.256;2022-07-29T02:10:33;19.20;92.40
3923;DHT22;1976;51.694;6.256;2022-07-29T02:13:00;19.10;93.00
3923;DHT22;1976;51.694;6.256;2022-07-29T02:15:29;18.80;93.60
3923;DHT22;1976;51.694;6.256;2022-07-29T02:18:13;18.60;94.20
3923;DHT22;1976;51.694;6.256;2022-07-29T02:20:45;18.50;94.90
3923;DHT22;1976;51.694;6.256;2022-07-29T02:23:12;18.40;95.90
3923;DHT22;1976;51.694;6.256;2022-07-29T02:25:41;18.20;99.90
3923;DHT22;1976;51.694;6.256;2022-07-29T02:28:08;18.00;99.90
3923;DHT22;1976;51.694;6.256;2022-07-29T02:30:36;17.80;99.90
3923;DHT22;1976;51.694;6.256;2022-07-29T02:33:05;17.50;99.90
3923;DHT22;1976;51.694;6.256;2022-07-29T02:35:32;17.40;99.90
3923;DHT22;1976;51.694;6.256;2022-07-29T02:37:58;17.30;99.90
3923;DHT22;1976;51.694;6.256;2022-07-29T02:40:43;17.30;99.90
3923;DHT22;1976;51.694;6.256;2022-07-29T02:43:10;17.20;99.90
3923;DHT22;1976;51.694;6.256;2022-07-29T02:45:36;17.20;99.90
3923;DHT22;1976;51.694;6.256;2022-07-29T02:48:08;17.30;99.90
3923;DHT22;1976;51.694;6.256;2022-07-29T02:50:38;17.30;99.90
3923;DHT22;1976;51.694;6.256;2022-07-29T02:53:14;17.40;99.90
3923;DHT22;1976;51.694;6.256;2022-07-29T02:55:48;17.40;99.90
3923;DHT22;1976;51.694;6.256;2022-07-29T02:58:29;17.40;99.90
3923;DHT22;1976;51.694;6.256;2022-07-29T03:00:59;17.40;99.90
3923;DHT22;1976;51.694;6.256;2022-07-29T03:03:37;17.40;99.90
3923;DHT22;1976;51.694;6.256;2022-07-29T03:06:05;17.50;99.90
3923;DHT22;1976;51.694;6.256;2022-07-29T03:08:32;17.40;99.90
3923;DHT22;1976;51.694;6.256;2022-07-29T03:11:00;17.30;99.90
3923;DHT22;1976;51.694;6.256;2022-07-29T03:13:27;17.20;99.90
3923;DHT22;1976;51.694;6.256;2022-07-29T03:15:55;17.10;99.90
3923;DHT22;1976;51.694;6.256;2022-07-29T03:18:21;17.10;99.90
3923;DHT22;1976;51.694;6.256;2022-07-29T03:20:47;17.00;99.90
3923;DHT22;1976;51.694;6.256;2022-07-29T03:23:21;17.00;99.90
3923;DHT22;1976;51.694;6.256;2022-07-29T03:25:49;16.90;99.90
3923;DHT22;1976;51.694;6.256;2022-07-29T03:28:15;16.80;99.90
3923;DHT22;1976;51.694;6.256;2022-07-29T03:30:41;16.70;99.90
3923;DHT22;1976;51.694;6.256;2022-07-29T03:33:06;16.60;99.90
3923;DHT22;1976;51.694;6.256;2022-07-29T03:35:32;16.60;99.90
3923;DHT22;1976;51.694;6.256;2022-07-29T03:37:58;16.40;99.90
3923;DHT22;1976;51.694;6.256;2022-07-29T03:40:48;16.40;99.90
3923;DHT22;1976;51.694;6.256;2022-07-29T03:43:16;16.30;99.90
3923;DHT22;1976;51.694;6.256;2022-07-29T03:45:49;16.30;99.90
3923;DHT22;1976;51.694;6.256;2022-07-29T03:48:17;16.30;99.90
3923;DHT22;1976;51.694;6.256;2022-07-29T03:50:45;16.20;99.90
3923;DHT22;1976;51.694;6.256;2022-07-29T03:53:11;16.20;99.90
3923;DHT22;1976;51.694;6.256;2022-07-29T03:55:41;16.20;99.90
3923;DHT22;1976;51.694;6.256;2022-07-29T03:58:08;16.20;99.90
3923;DHT22;1976;51.694;6.256;2022-07-29T04:00:36;16.20;99.90
3923;DHT22;1976;51.694;6.256;2022-07-29T04:03:04;16.30;99.90
3923;DHT22;1976;51.694;6.256;2022-07-29T04:05:30;16.40;99.90
3923;DHT22;1976;51.694;6.256;2022-07-29T04:07:55;16.40;99.90
3923;DHT22;1976;51.694;6.256;2022-07-29T04:10:21;16.40;99.90
3923;DHT22;1976;51.694;6.256;2022-07-29T04:12:49;16.40;99.90
3923;DHT22;1976;51.694;6.256;2022-07-29T04:15:14;16.50;99.90
3923;DHT22;1976;51.694;6.256;2022-07-29T04:17:40;16.60;99.90
3923;DHT22;1976;51.694;6.256;2022-07-29T04:20:06;16.70;99.90
3923;DHT22;1976;51.694;6.256;2022-07-29T04:22:32;16.70;99.90
3923;DHT22;1976;51.694;6.256;2022-07-29T04:24:57;16.60;99.90
3923;DHT22;1976;51.694;6.256;2022-07-29T04:27:23;16.60;99.90
3923;DHT22;1976;51.694;6.256;2022-07-29T04:29:49;16.60;99.90
3923;DHT22;1976;51.694;6.256;2022-07-29T04:32:15;16.60;99.90
3923;DHT22;1976;51.694;6.256;2022-07-29T04:34:41;16.60;99.90
3923;DHT22;1976;51.694;6.256;2022-07-29T04:37:06;16.70;99.90
3923;DHT22;1976;51.694;6.256;2022-07-29T04:39:32;16.70;99.90
3923;DHT22;1976;51.694;6.256;2022-07-29T04:41:57;16.80;99.90
3923;DHT22;1976;51.694;6.256;2022-07-29T04:44:23;16.80;99.90
3923;DHT22;1976;51.694;6.256;2022-07-29T04:46:49;16.80;99.90
3923;DHT22;1976;51.694;6.256;2022-07-29T04:49:14;16.80;99.90
3923;DHT22;1976;51.694;6.256;2022-07-29T04:51:40;16.80;99.90
3923;DHT22;1976;51.694;6.256;2022-07-29T04:54:06;16.80;99.90
3923;DHT22;1976;51.694;6.256;2022-07-29T04:56:31;16.80;99.90
3923;DHT22;1976;51.694;6.256;2022-07-29T04:58:57;16.80;99.90
3923;DHT22;1976;51.694;6.256;2022-07-29T05:01:23;16.80;99.90
3923;DHT22;1976;51.694;6.256;2022-07-29T05:03:48;16.70;99.90
3923;DHT22;1976;51.694;6.256;2022-07-29T05:06:14;16.70;99.90
3923;DHT22;1976;51.694;6.256;2022-07-29T05:08:40;16.60;99.90
3923;DHT22;1976;51.694;6.256;2022-07-29T05:11:05;16.60;99.90
3923;DHT22;1976;51.694;6.256;2022-07-29T05:13:31;16.60;99.90
3923;DHT22;1976;51.694;6.256;2022-07-29T05:15:57;16.60;99.90
3923;DHT22;1976;51.694;6.256;2022-07-29T05:18:27;16.50;99.90
3923;DHT22;1976;51.694;6.256;2022-07-29T05:20:53;16.40;99.90
3923;DHT22;1976;51.694;6.256;2022-07-29T05:23:19;16.40;99.90
3923;DHT22;1976;51.694;6.256;2022-07-29T05:25:45;16.40;99.90
3923;DHT22;1976;51.694;6.256;2022-07-29T05:28:11;16.40;99.90
3923;DHT22;1976;51.694;6.256;2022-07-29T05:30:37;16.30;99.90
3923;DHT22;1976;51.694;6.256;2022-07-29T05:33:03;16.30;99.90
3923;DHT22;1976;51.694;6.256;2022-07-29T05:35:29;16.30;99.90
3923;DHT22;1976;51.694;6.256;2022-07-29T05:37:54;16.30;99.90
3923;DHT22;1976;51.694;6.256;2022-07-29T05:40:20;16.30;99.90
3923;DHT22;1976;51.694;6.256;2022-07-29T05:42:46;16.40;99.90
3923;DHT22;1976;51.694;6.256;2022-07-29T05:45:11;16.40;99.90
3923;DHT22;1976;51.694;6.256;2022-07-29T05:47:37;16.50;99.90
3923;DHT22;1976;51.694;6.256;2022-07-29T05:50:03;16.60;99.90
3923;DHT22;1976;51.694;6.256;2022-07-29T05:52:29;16.70;99.90
3923;DHT22;1976;51.694;6.256;2022-07-29T05:54:55;16.80;99.90
3923;DHT22;1976;51.694;6.256;2022-07-29T05:57:23;16.90;99.90
3923;DHT22;1976;51.694;6.256;2022-07-29T05:59:49;17.00;99.90
3923;DHT22;1976;51.694;6.256;2022-07-29T06:02:16;17.10;99.90
3923;DHT22;1976;51.694;6.256;2022-07-29T06:04:42;17.20;99.90
3923;DHT22;1976;51.694;6.256;2022-07-29T06:07:08;17.20;99.90
3923;DHT22;1976;51.694;6.256;2022-07-29T06:09:34;17.30;99.90
3923;DHT22;1976;51.694;6.256;2022-07-29T06:12:00;17.40;99.90
3923;DHT22;1976;51.694;6.256;2022-07-29T06:14:26;17.30;99.90
3923;DHT22;1976;51.694;6.256;2022-07-29T06:16:53;17.20;99.90
3923;DHT22;1976;51.694;6.256;2022-07-29T06:19:19;17.10;99.90
3923;DHT22;1976;51.694;6.256;2022-07-29T06:21:46;17.10;99.90
3923;DHT22;1976;51.694;6.256;2022-07-29T06:24:12;17.10;99.90
3923;DHT22;1976;51.694;6.256;2022-07-29T06:26:39;17.10;99.90
3923;DHT22;1976;51.694;6.256;2022-07-29T06:29:08;17.10;99.90
3923;DHT22;1976;51.694;6.256;2022-07-29T06:31:36;17.20;99.90
3923;DHT22;1976;51.694;6.256;2022-07-29T06:34:02;17.20;99.90
3923;DHT22;1976;51.694;6.256;2022-07-29T06:36:28;17.20;99.90
3923;DHT22;1976;51.694;6.256;2022-07-29T06:38:54;17.10;99.90
3923;DHT22;1976;51.694;6.256;2022-07-29T06:41:20;17.00;99.90
3923;DHT22;1976;51.694;6.256;2022-07-29T06:43:45;17.10;99.90
3923;DHT22;1976;51.694;6.256;2022-07-29T06:46:13;17.10;99.90
3923;DHT22;1976;51.694;6.256;2022-07-29T06:48:41;17.10;99.90
3923;DHT22;1976;51.694;6.256;2022-07-29T06:51:10;17.20;99.90
3923;DHT22;1976;51.694;6.256;2022-07-29T06:53:37;17.20;99.90
3923;DHT22;1976;51.694;6.256;2022-07-29T06:56:04;17.30;99.90
3923;DHT22;1976;51.694;6.256;2022-07-29T06:58:30;17.40;99.90
3923;DHT22;1976;51.694;6.256;2022-07-29T07:00:57;17.40;99.90
3923;DHT22;1976;51.694;6.256;2022-07-29T07:03:24;17.50;99.90
3923;DHT22;1976;51.694;6.256;2022-07-29T07:05:51;17.50;99.90
3923;DHT22;1976;51.694;6.256;2022-07-29T07:08:17;17.60;99.90
3923;DHT22;1976;51.694;6.256;2022-07-29T07:10:43;17.60;99.90
3923;DHT22;1976;51.694;6.256;2022-07-29T07:13:09;17.60;99.90
3923;DHT22;1976;51.694;6.256;2022-07-29T07:15:36;17.60;99.90
3923;DHT22;1976;51.694;6.256;2022-07-29T07:18:02;17.70;99.90
3923;DHT22;1976;51.694;6.256;2022-07-29T07:20:28;17.70;99.90
3923;DHT22;1976;51.694;6.256;2022-07-29T07:22:53;17.70;99.90
3923;DHT22;1976;51.694;6.256;2022-07-29T07:25:19;17.70;99.90
3923;DHT22;1976;51.694;6.256;2022-07-29T07:27:45;17.60;99.90
3923;DHT22;1976;51.694;6.256;2022-07-29T07:30:11;17.40;99.90
3923;DHT22;1976;51.694;6.256;2022-07-29T07:32:37;17.40;99.90
3923;DHT22;1976;51.694;6.256;2022-07-29T07:35:05;17.30;99.90
3923;DHT22;1976;51.694;6.256;2022-07-29T07:37:31;17.30;99.90
3923;DHT22;1976;51.694;6.256;2022-07-29T07:39:57;17.30;99.90
3923;DHT22;1976;51.694;6.256;2022-07-29T07:42:29;17.20;99.90
3923;DHT22;1976;51.694;6.256;2022-07-29T07:44:57;17.30;99.90
3923;DHT22;1976;51.694;6.256;2022-07-29T07:47:24;17.10;99.90
3923;DHT22;1976;51.694;6.256;2022-07-29T07:49:50;17.10;99.90
3923;DHT22;1976;51.694;6.256;2022-07-29T07:52:17;17.10;99.90
3923;DHT22;1976;51.694;6.256;2022-07-29T07:54:43;17.00;99.90
3923;DHT22;1976;51.694;6.256;2022-07-29T07:57:10;17.10;99.90
3923;DHT22;1976;51.694;6.256;2022-07-29T08:02:02;17.20;99.90
3923;DHT22;1976;51.694;6.256;2022-07-29T08:04:28;17.30;99.90
3923;DHT22;1976;51.694;6.256;2022-07-29T08:06:55;17.40;99.90
3923;DHT22;1976;51.694;6.256;2022-07-29T08:09:21;17.60;99.90
3923;DHT22;1976;51.694;6.256;2022-07-29T08:11:47;17.60;99.90
3923;DHT22;1976;51.694;6.256;2022-07-29T08:14:13;17.60;99.90
3923;DHT22;1976;51.694;6.256;2022-07-29T08:16:39;17.70;99.90
3923;DHT22;1976;51.694;6.256;2022-07-29T08:19:06;17.70;99.90
3923;DHT22;1976;51.694;6.256;2022-07-29T08:21:31;17.70;99.90
3923;DHT22;1976;51.694;6.256;2022-07-29T08:23:57;17.80;99.90
3923;DHT22;1976;51.694;6.256;2022-07-29T08:26:43;17.90;99.90
3923;DHT22;1976;51.694;6.256;2022-07-29T08:29:09;18.00;99.90
3923;DHT22;1976;51.694;6.256;2022-07-29T08:31:36;18.20;99.90
3923;DHT22;1976;51.694;6.256;2022-07-29T08:34:02;18.20;99.90
3923;DHT22;1976;51.694;6.256;2022-07-29T08:36:29;18.20;99.90
3923;DHT22;1976;51.694;6.256;2022-07-29T08:38:55;18.20;99.90
3923;DHT22;1976;51.694;6.256;2022-07-29T08:41:21;18.10;99.90
3923;DHT22;1976;51.694;6.256;2022-07-29T08:43:48;18.10;99.90
3923;DHT22;1976;51.694;6.256;2022-07-29T08:46:14;17.90;99.90
3923;DHT22;1976;51.694;6.256;2022-07-29T08:48:41;17.90;99.90
3923;DHT22;1976;51.694;6.256;2022-07-29T08:51:07;17.90;99.90
3923;DHT22;1976;51.694;6.256;2022-07-29T08:53:33;18.00;99.90
3923;DHT22;1976;51.694;6.256;2022-07-29T08:55:59;18.00;99.90
3923;DHT22;1976;51.694;6.256;2022-07-29T08:58:26;18.00;99.90
3923;DHT22;1976;51.694;6.256;2022-07-29T09:00:55;18.10;99.90
3923;DHT22;1976;51.694;6.256;2022-07-29T09:03:24;18.20;99.90
3923;DHT22;1976;51.694;6.256;2022-07-29T09:05:51;18.40;99.90
3923;DHT22;1976;51.694;6.256;2022-07-29T09:08:17;18.60;99.90
3923;DHT22;1976;51.694;6.256;2022-07-29T09:10:43;18.90;99.90
3923;DHT22;1976;51.694;6.256;2022-07-29T09:13:09;19.20;99.90
3923;DHT22;1976;51.694;6.256;2022-07-29T09:15:35;19.30;99.90
3923;DHT22;1976;51.694;6.256;2022-07-29T09:18:01;19.60;99.90
3923;DHT22;1976;51.694;6.256;2022-07-29T09:20:27;19.70;99.90
3923;DHT22;1976;51.694;6.256;2022-07-29T09:23:13;20.00;99.90
3923;DHT22;1976;51.694;6.256;2022-07-29T09:25:40;20.00;99.90
3923;DHT22;1976;51.694;6.256;2022-07-29T09:28:11;20.20;99.90
3923;DHT22;1976;51.694;6.256;2022-07-29T09:33:16;20.50;99.90
3923;DHT22;1976;51.694;6.256;2022-07-29T09:35:42;20.60;99.90
3923;DHT22;1976;51.694;6.256;2022-07-29T09:38:12;20.80;99.90
3923;DHT22;1976;51.694;6.256;2022-07-29T09:40:38;21.00;99.90
3923;DHT22;1976;51.694;6.256;2022-07-29T09:43:11;21.20;99.90
3923;DHT22;1976;51.694;6.256;2022-07-29T09:45:38;21.40;99.90
3923;DHT22;1976;51.694;6.256;2022-07-29T09:48:17;21.60;99.90
3923;DHT22;1976;51.694;6.256;2022-07-29T09:50:44;21.80;99.90
3923;DHT22;1976;51.694;6.256;2022-07-29T09:53:10;22.30;99.90
3923;DHT22;1976;51.694;6.256;2022-07-29T09:55:51;22.50;99.90
3923;DHT22;1976;51.694;6.256;2022-07-29T09:58:19;22.60;99.90
3923;DHT22;1976;51.694;6.256;2022-07-29T10:00:46;22.90;99.90
3923;DHT22;1976;51.694;6.256;2022-07-29T10:03:13;23.80;99.90
3923;DHT22;1976;51.694;6.256;2022-07-29T10:05:39;23.80;99.90
3923;DHT22;1976;51.694;6.256;2022-07-29T10:08:07;24.30;99.90
3923;DHT22;1976;51.694;6.256;2022-07-29T10:10:38;25.70;99.40
3923;DHT22;1976;51.694;6.256;2022-07-29T10:13:06;25.60;99.60
3923;DHT22;1976;51.694;6.256;2022-07-29T10:15:34;27.30;96.90
3923;DHT22;1976;51.694;6.256;2022-07-29T10:18:06;27.40;97.00
3923;DHT22;1976;51.694;6.256;2022-07-29T10:20:32;30.70;93.30
3923;DHT22;1976;51.694;6.256;2022-07-29T10:22:58;33.30;89.20
3923;DHT22;1976;51.694;6.256;2022-07-29T10:25:24;33.30;89.70
3923;DHT22;1976;51.694;6.256;2022-07-29T10:27:51;36.20;78.90
3923;DHT22;1976;51.694;6.256;2022-07-29T10:30:17;37.40;75.60
3923;DHT22;1976;51.694;6.256;2022-07-29T10:44:06;42.70;52.90
3923;DHT22;1976;51.694;6.256;2022-07-29T10:46:38;43.40;50.20
3923;DHT22;1976;51.694;6.256;2022-07-29T11:05:18;46.30;40.30
3923;DHT22;1976;51.694;6.256;2022-07-29T11:10:38;45.60;40.40
3923;DHT22;1976;51.694;6.256;2022-07-29T11:13:04;45.70;40.30
3923;DHT22;1976;51.694;6.256;2022-07-29T11:15:52;46.00;39.70
3923;DHT22;1976;51.694;6.256;2022-07-29T11:18:18;46.20;39.50
3923;DHT22;1976;51.694;6.256;2022-07-29T11:20:48;46.60;38.30
3923;DHT22;1976;51.694;6.256;2022-07-29T11:23:25;47.10;37.90
3923;DHT22;1976;51.694;6.256;2022-07-29T11:26:13;47.20;36.90
3923;DHT22;1976;51.694;6.256;2022-07-29T11:34:29;44.10;37.00
3923;DHT22;1976;51.694;6.256;2022-07-29T11:39:35;41.90;40.80
3923;DHT22;1976;51.694;6.256;2022-07-29T11:47:22;42.30;39.80
3923;DHT22;1976;51.694;6.256;2022-07-29T11:49:48;41.80;40.30
3923;DHT22;1976;51.694;6.256;2022-07-29T11:52:16;41.50;39.60
3923;DHT22;1976;51.694;6.256;2022-07-29T11:54:43;41.30;40.40
3923;DHT22;1976;51.694;6.256;2022-07-29T11:57:09;40.90;40.70
3923;DHT22;1976;51.694;6.256;2022-07-29T11:59:42;40.30;41.40
3923;DHT22;1976;51.694;6.256;2022-07-29T12:02:08;39.50;41.80
3923;DHT22;1976;51.694;6.256;2022-07-29T12:04:51;38.80;42.40
3923;DHT22;1976;51.694;6.256;2022-07-29T12:07:18;38.00;43.40
3923;DHT22;1976;51.694;6.256;2022-07-29T12:09:51;37.40;44.40
3923;DHT22;1976;51.694;6.256;2022-07-29T12:12:17;37.30;45.60
3923;DHT22;1976;51.694;6.256;2022-07-29T12:14:42;37.10;45.90
3923;DHT22;1976;51.694;6.256;2022-07-29T12:19:51;36.50;46.20
3923;DHT22;1976;51.694;6.256;2022-07-29T12:22:29;36.40;46.70
3923;DHT22;1976;51.694;6.256;2022-07-29T12:24:55;36.70;46.50
3923;DHT22;1976;51.694;6.256;2022-07-29T12:27:22;37.50;47.20
3923;DHT22;1976;51.694;6.256;2022-07-29T12:30:03;38.20;46.00
3923;DHT22;1976;51.694;6.256;2022-07-29T12:32:33;38.50;45.00
3923;DHT22;1976;51.694;6.256;2022-07-29T12:35:15;39.10;45.30
3923;DHT22;1976;51.694;6.256;2022-07-29T12:37:43;40.20;45.00
3923;DHT22;1976;51.694;6.256;2022-07-29T12:40:11;41.10;42.30
3923;DHT22;1976;51.694;6.256;2022-07-29T12:42:38;41.10;42.40
3923;DHT22;1976;51.694;6.256;2022-07-29T12:45:04;40.70;42.00
3923;DHT22;1976;51.694;6.256;2022-07-29T12:47:31;40.20;42.10
3923;DHT22;1976;51.694;6.256;2022-07-29T12:50:17;39.90;43.20
3923;DHT22;1976;51.694;6.256;2022-07-29T12:52:44;39.90;41.90
3923;DHT22;1976;51.694;6.256;2022-07-29T12:55:11;39.70;42.20
3923;DHT22;1976;51.694;6.256;2022-07-29T12:57:50;39.30;42.10
3923;DHT22;1976;51.694;6.256;2022-07-29T13:00:24;39.10;42.40
3923;DHT22;1976;51.694;6.256;2022-07-29T13:02:57;39.30;41.30
3923;DHT22;1976;51.694;6.256;2022-07-29T13:05:24;39.50;40.80
3923;DHT22;1976;51.694;6.256;2022-07-29T13:08:29;39.70;42.00
3923;DHT22;1976;51.694;6.256;2022-07-29T13:10:55;39.90;41.60
3923;DHT22;1976;51.694;6.256;2022-07-29T13:13:21;40.00;41.60
3923;DHT22;1976;51.694;6.256;2022-07-29T13:16:05;40.40;42.40
3923;DHT22;1976;51.694;6.256;2022-07-29T13:18:34;40.80;40.90
3923;DHT22;1976;51.694;6.256;2022-07-29T13:21:14;40.90;39.70
3923;DHT22;1976;51.694;6.256;2022-07-29T13:23:40;41.20;40.80
3923;DHT22;1976;51.694;6.256;2022-07-29T13:26:07;42.50;40.50
3923;DHT22;1976;51.694;6.256;2022-07-29T13:28:34;43.70;39.00
3923;DHT22;1976;51.694;6.256;2022-07-29T13:31:00;44.00;38.20
3923;DHT22;1976;51.694;6.256;2022-07-29T13:33:25;44.20;36.40
3923;DHT22;1976;51.694;6.256;2022-07-29T13:35:51;44.90;36.90
3923;DHT22;1976;51.694;6.256;2022-07-29T13:38:17;45.60;37.00
3923;DHT22;1976;51.694;6.256;2022-07-29T13:40:42;46.40;35.20
3923;DHT22;1976;51.694;6.256;2022-07-29T13:43:11;46.90;34.70
3923;DHT22;1976;51.694;6.256;2022-07-29T13:45:37;47.50;34.60
3923;DHT22;1976;51.694;6.256;2022-07-29T13:48:03;47.70;34.70
3923;DHT22;1976;51.694;6.256;2022-07-29T13:50:29;47.80;34.10
3923;DHT22;1976;51.694;6.256;2022-07-29T13:52:55;47.90;34.10
3923;DHT22;1976;51.694;6.256;2022-07-29T13:55:20;47.70;33.70
3923;DHT22;1976;51.694;6.256;2022-07-29T13:57:46;47.40;32.80
3923;DHT22;1976;51.694;6.256;2022-07-29T14:00:13;47.20;33.00
3923;DHT22;1976;51.694;6.256;2022-07-29T14:02:39;47.10;33.40
3923;DHT22;1976;51.694;6.256;2022-07-29T14:05:06;46.20;32.90
3923;DHT22;1976;51.694;6.256;2022-07-29T14:07:32;45.90;33.80
3923;DHT22;1976;51.694;6.256;2022-07-29T14:09:57;45.90;34.00
3923;DHT22;1976;51.694;6.256;2022-07-29T14:12:23;45.80;34.20
3923;DHT22;1976;51.694;6.256;2022-07-29T14:14:48;45.80;34.70
3923;DHT22;1976;51.694;6.256;2022-07-29T14:17:15;45.80;34.00
3923;DHT22;1976;51.694;6.256;2022-07-29T14:19:41;45.80;34.10
3923;DHT22;1976;51.694;6.256;2022-07-29T14:22:07;45.60;33.00
3923;DHT22;1976;51.694;6.256;2022-07-29T14:24:34;45.40;33.70
3923;DHT22;1976;51.694;6.256;2022-07-29T14:27:00;45.20;33.40
3923;DHT22;1976;51.694;6.256;2022-07-29T14:29:26;45.10;33.80
3923;DHT22;1976;51.694;6.256;2022-07-29T14:31:51;45.00;34.40
3923;DHT22;1976;51.694;6.256;2022-07-29T14:34:17;44.80;34.00
3923;DHT22;1976;51.694;6.256;2022-07-29T14:36:43;44.60;34.00
3923;DHT22;1976;51.694;6.256;2022-07-29T14:39:09;44.40;34.00
3923;DHT22;1976;51.694;6.256;2022-07-29T14:41:34;44.30;33.60
3923;DHT22;1976;51.694;6.256;2022-07-29T14:44:00;44.10;34.20
3923;DHT22;1976;51.694;6.256;2022-07-29T14:46:27;43.70;34.40
3923;DHT22;1976;51.694;6.256;2022-07-29T14:48:52;43.30;33.80
3923;DHT22;1976;51.694;6.256;2022-07-29T14:51:19;42.70;33.50
3923;DHT22;1976;51.694;6.256;2022-07-29T14:53:44;42.40;35.10
3923;DHT22;1976;51.694;6.256;2022-07-29T14:56:10;42.20;35.80
3923;DHT22;1976;51.694;6.256;2022-07-29T14:58:36;42.10;36.00
3923;DHT22;1976;51.694;6.256;2022-07-29T15:01:02;42.10;36.10
3923;DHT22;1976;51.694;6.256;2022-07-29T15:03:28;42.00;36.70
3923;DHT22;1976;51.694;6.256;2022-07-29T15:05:54;41.90;36.70
3923;DHT22;1976;51.694;6.256;2022-07-29T15:08:20;41.60;36.10
3923;DHT22;1976;51.694;6.256;2022-07-29T15:10:45;41.30;36.00
3923;DHT22;1976;51.694;6.256;2022-07-29T15:13:11;41.10;36.60
3923;DHT22;1976;51.694;6.256;2022-07-29T15:15:37;40.90;35.40
3923;DHT22;1976;51.694;6.256;2022-07-29T15:18:03;40.80;36.50
3923;DHT22;1976;51.694;6.256;2022-07-29T15:20:28;40.70;37.50
3923;DHT22;1976;51.694;6.256;2022-07-29T15:22:54;40.60;36.90
3923;DHT22;1976;51.694;6.256;2022-07-29T15:25:23;40.50;36.60
3923;DHT22;1976;51.694;6.256;2022-07-29T15:27:49;40.50;36.10
3923;DHT22;1976;51.694;6.256;2022-07-29T15:30:15;40.40;37.00
3923;DHT22;1976;51.694;6.256;2022-07-29T15:32:44;40.30;36.70
3923;DHT22;1976;51.694;6.256;2022-07-29T15:35:10;40.10;37.50
3923;DHT22;1976;51.694;6.256;2022-07-29T15:37:37;40.00;37.80
3923;DHT22;1976;51.694;6.256;2022-07-29T15:40:04;39.80;36.60
3923;DHT22;1976;51.694;6.256;2022-07-29T15:42:30;39.60;37.60
3923;DHT22;1976;51.694;6.256;2022-07-29T15:44:56;39.60;38.30
3923;DHT22;1976;51.694;6.256;2022-07-29T15:47:22;39.50;38.80
3923;DHT22;1976;51.694;6.256;2022-07-29T15:49:48;39.40;39.00
3923;DHT22;1976;51.694;6.256;2022-07-29T15:52:18;39.40;39.10
3923;DHT22;1976;51.694;6.256;2022-07-29T15:54:44;39.30;39.40
3923;DHT22;1976;51.694;6.256;2022-07-29T15:57:11;39.30;38.80
3923;DHT22;1976;51.694;6.256;2022-07-29T15:59:37;39.30;38.80
3923;DHT22;1976;51.694;6.256;2022-07-29T16:02:03;39.30;38.30
3923;DHT22;1976;51.694;6.256;2022-07-29T16:04:30;39.00;37.00
3923;DHT22;1976;51.694;6.256;2022-07-29T16:06:56;38.80;37.30
3923;DHT22;1976;51.694;6.256;2022-07-29T16:09:22;38.50;37.10
3923;DHT22;1976;51.694;6.256;2022-07-29T16:11:48;38.30;37.10
3923;DHT22;1976;51.694;6.256;2022-07-29T16:14:16;38.10;37.60
3923;DHT22;1976;51.694;6.256;2022-07-29T16:16:42;37.90;37.80
3923;DHT22;1976;51.694;6.256;2022-07-29T16:19:08;37.70;38.20
3923;DHT22;1976;51.694;6.256;2022-07-29T16:21:35;37.60;38.40
3923;DHT22;1976;51.694;6.256;2022-07-29T16:24:01;37.50;38.40
3923;DHT22;1976;51.694;6.256;2022-07-29T16:26:27;37.40;38.20
3923;DHT22;1976;51.694;6.256;2022-07-29T16:28:53;37.20;39.90
3923;DHT22;1976;51.694;6.256;2022-07-29T16:31:19;37.00;40.60
3923;DHT22;1976;51.694;6.256;2022-07-29T16:33:48;36.80;40.80
3923;DHT22;1976;51.694;6.256;2022-07-29T16:36:13;36.50;41.10
3923;DHT22;1976;51.694;6.256;2022-07-29T16:38:39;36.40;41.60
3923;DHT22;1976;51.694;6.256;2022-07-29T16:41:07;36.30;42.20
3923;DHT22;1976;51.694;6.256;2022-07-29T16:43:32;36.20;42.30
3923;DHT22;1976;51.694;6.256;2022-07-29T16:45:58;36.10;42.30
3923;DHT22;1976;51.694;6.256;2022-07-29T16:48:24;35.90;42.10
3923;DHT22;1976;51.694;6.256;2022-07-29T16:50:49;35.70;42.70
3923;DHT22;1976;51.694;6.256;2022-07-29T16:53:15;35.50;43.10
3923;DHT22;1976;51.694;6.256;2022-07-29T16:55:41;35.30;43.30
3923;DHT22;1976;51.694;6.256;2022-07-29T16:58:06;35.20;43.10
3923;DHT22;1976;51.694;6.256;2022-07-29T17:00:32;35.00;43.50
3923;DHT22;1976;51.694;6.256;2022-07-29T17:02:58;34.80;44.30
3923;DHT22;1976;51.694;6.256;2022-07-29T17:05:25;34.70;44.60
3923;DHT22;1976;51.694;6.256;2022-07-29T17:07:51;34.50;44.30
3923;DHT22;1976;51.694;6.256;2022-07-29T17:10:16;34.30;44.60
3923;DHT22;1976;51.694;6.256;2022-07-29T17:12:42;33.90;45.20
3923;DHT22;1976;51.694;6.256;2022-07-29T17:15:10;33.60;45.30
3923;DHT22;1976;51.694;6.256;2022-07-29T17:17:37;33.40;45.40
3923;DHT22;1976;51.694;6.256;2022-07-29T17:20:06;33.10;45.70